Time;durP1;ratioP1;P1;durP2;ratioP2;P2;SDS_P1;SDS_P2;PMS_P1;PMS_P2;Temp;Humidity;BMP_temperature;BMP_pressure;BME280_temperature;BME280_humidity;BME280_pressure;Samples;Min_cycle;Max_cycle;Signal;HPM_P1;HPM_P2
2023/08/14 00:02:14;;;;;;;;;;;20.70;99.90;;;;;;5026199;28;19922;-71
2023/08/14 00:04:41;;;;;;;;;;;20.60;99.90;;;;;;5026069;28;20137;-71
2023/08/14 00:07:07;;;;;;;;;;;20.60;99.90;;;;;;5025545;28;19921;-71
2023/08/14 00:09:34;;;;;;;;;;;20.60;99.90;;;;;;5026267;28;19921;-71
2023/08/14 00:12:01;;;;;;;;;;;20.60;99.90;;;;;;5021802;28;19921;-72
2023/08/14 00:14:29;;;;;;;;;;;20.50;99.90;;;;;;5025879;28;20149;-71
2023/08/14 00:16:55;;;;;;;;;;;20.50;99.90;;;;;;5025153;28;19921;-71
2023/08/14 00:19:22;;;;;;;;;;;20.50;99.90;;;;;;5026051;28;19927;-71
2023/08/14 00:21:49;;;;;;;;;;;20.40;99.90;;;;;;5026095;28;19921;-71
2023/08/14 00:24:15;;;;;;;;;;;20.40;99.90;;;;;;5025709;28;20209;-71
2023/08/14 00:26:42;;;;;;;;;;;20.40;99.90;;;;;;5025071;28;19922;-71
2023/08/14 00:29:09;;;;;;;;;;;20.40;99.90;;;;;;5025629;28;19922;-71
2023/08/14 00:31:36;;;;;;;;;;;20.40;99.90;;;;;;5025793;28;19921;-70
2023/08/14 00:34:03;;;;;;;;;;;20.40;99.90;;;;;;5025539;28;19921;-70
2023/08/14 00:36:30;;;;;;;;;;;20.40;99.90;;;;;;5025085;28;19921;-71
2023/08/14 00:38:56;;;;;;;;;;;20.40;99.90;;;;;;5025453;28;19921;-71
2023/08/14 00:41:23;;;;;;;;;;;20.40;99.90;;;;;;5025461;28;20157;-71
2023/08/14 00:43:51;;;;;;;;;;;20.40;99.90;;;;;;5025326;28;19957;-70
2023/08/14 00:46:18;;;;;;;;;;;20.40;99.90;;;;;;5024959;28;19921;-70
2023/08/14 00:48:46;;;;;;;;;;;20.40;99.90;;;;;;5024690;28;19957;-71
2023/08/14 00:51:13;;;;;;;;;;;20.30;99.90;;;;;;5025216;28;20158;-71
2023/08/14 00:53:40;;;;;;;;;;;20.30;99.90;;;;;;5025380;28;19980;-70
2023/08/14 00:56:06;;;;;;;;;;;20.30;99.90;;;;;;5024795;28;19928;-71
2023/08/14 00:58:33;;;;;;;;;;;20.30;99.90;;;;;;5024158;28;19996;-71
2023/08/14 01:00:59;;;;;;;;;;;20.30;99.90;;;;;;5025061;28;19921;-71
2023/08/14 01:03:26;;;;;;;;;;;20.20;99.90;;;;;;5025052;28;19957;-71
2023/08/14 01:05:54;;;;;;;;;;;20.20;99.90;;;;;;5024861;28;19988;-71
2023/08/14 01:08:21;;;;;;;;;;;20.20;99.90;;;;;;5024183;28;19981;-71
2023/08/14 01:10:53;;;;;;;;;;;20.10;99.90;;;;;;5025100;28;19980;-72
2023/08/14 01:13:25;;;;;;;;;;;20.00;99.90;;;;;;5025180;28;19984;-71
2023/08/14 01:15:54;;;;;;;;;;;20.00;99.90;;;;;;5024839;28;19922;-71
2023/08/14 01:18:21;;;;;;;;;;;20.00;99.90;;;;;;5024203;28;19980;-70
2023/08/14 01:20:51;;;;;;;;;;;20.00;99.90;;;;;;5025298;28;19928;-71
2023/08/14 01:23:22;;;;;;;;;;;20.00;99.90;;;;;;5024976;28;20212;-71
2023/08/14 01:25:51;;;;;;;;;;;20.10;99.90;;;;;;5024816;28;19928;-71
2023/08/14 01:28:18;;;;;;;;;;;20.10;99.90;;;;;;5024451;28;19960;-71
2023/08/14 01:30:44;;;;;;;;;;;20.10;99.90;;;;;;5025110;28;19985;-71
2023/08/14 01:33:11;;;;;;;;;;;20.10;99.90;;;;;;5024597;28;19922;-71
2023/08/14 01:35:40;;;;;;;;;;;20.10;99.90;;;;;;5024600;28;19928;-71
2023/08/14 01:38:12;;;;;;;;;;;20.10;99.90;;;;;;5024003;28;20090;-71
2023/08/14 01:40:43;;;;;;;;;;;20.10;99.90;;;;;;5024463;28;19980;-71
2023/08/14 01:43:11;;;;;;;;;;;20.10;99.90;;;;;;5024296;28;20004;-73
2023/08/14 01:45:39;;;;;;;;;;;20.10;99.90;;;;;;5024205;28;19928;-71
2023/08/14 01:48:07;;;;;;;;;;;20.10;99.90;;;;;;5023763;28;19988;-71
2023/08/14 01:50:34;;;;;;;;;;;20.10;99.90;;;;;;5024371;28;19984;-71
2023/08/14 01:53:01;;;;;;;;;;;20.10;99.90;;;;;;5024136;28;19921;-72
2023/08/14 01:55:27;;;;;;;;;;;20.10;99.90;;;;;;5024283;28;19922;-70
2023/08/14 01:57:54;;;;;;;;;;;20.10;99.90;;;;;;5023818;28;20206;-71
2023/08/14 02:00:22;;;;;;;;;;;20.10;99.90;;;;;;5024911;28;20000;-71
2023/08/14 02:02:48;;;;;;;;;;;20.10;99.90;;;;;;5024830;28;19922;-71
2023/08/14 02:05:15;;;;;;;;;;;20.10;99.90;;;;;;5024214;28;20209;-71
2023/08/14 02:07:42;;;;;;;;;;;20.10;99.90;;;;;;5023928;28;19922;-71
2023/08/14 02:10:09;;;;;;;;;;;20.10;99.90;;;;;;5024131;28;19928;-71
2023/08/14 02:12:36;;;;;;;;;;;20.10;99.90;;;;;;5024519;28;19960;-70
2023/08/14 02:15:01;;;;;;;;;;;20.10;99.90;;;;;;5024379;28;19927;-71
2023/08/14 02:17:29;;;;;;;;;;;20.10;99.90;;;;;;5024083;28;19917;-71
2023/08/14 02:19:56;;;;;;;;;;;20.10;99.90;;;;;;5024029;28;20136;-71
2023/08/14 02:22:23;;;;;;;;;;;20.20;99.90;;;;;;5024501;28;19988;-71
2023/08/14 02:24:50;;;;;;;;;;;20.20;99.90;;;;;;5024041;28;19953;-71
2023/08/14 02:27:16;;;;;;;;;;;20.20;99.90;;;;;;5023400;28;19960;-70
2023/08/14 02:29:43;;;;;;;;;;;20.20;99.90;;;;;;5023936;28;19928;-72
2023/08/14 02:32:09;;;;;;;;;;;20.20;99.90;;;;;;5023735;28;19952;-72
2023/08/14 02:34:44;;;;;;;;;;;20.20;99.90;;;;;;5024150;28;19992;-72
2023/08/14 02:37:11;;;;;;;;;;;20.20;99.90;;;;;;5023670;28;19964;-71
2023/08/14 02:39:38;;;;;;;;;;;20.20;99.90;;;;;;5024045;28;19921;-71
2023/08/14 02:42:04;;;;;;;;;;;20.20;99.90;;;;;;5024168;28;19928;-72
2023/08/14 02:44:31;;;;;;;;;;;20.20;99.90;;;;;;5024158;28;19921;-71
2023/08/14 02:46:58;;;;;;;;;;;20.30;99.90;;;;;;5023456;28;20001;-71
2023/08/14 02:49:25;;;;;;;;;;;20.30;99.90;;;;;;5021536;28;19925;-72
2023/08/14 02:51:54;;;;;;;;;;;20.20;99.90;;;;;;5023898;28;20209;-71
2023/08/14 02:54:20;;;;;;;;;;;20.20;99.90;;;;;;5024501;28;19993;-71
2023/08/14 02:56:47;;;;;;;;;;;20.20;99.90;;;;;;5023455;28;19928;-71
2023/08/14 02:59:14;;;;;;;;;;;20.20;99.90;;;;;;5009933;28;19981;-72
2023/08/14 03:01:40;;;;;;;;;;;20.20;99.90;;;;;;5008347;28;19988;-71
2023/08/14 03:04:07;;;;;;;;;;;20.20;99.90;;;;;;5024216;28;19921;-70
2023/08/14 03:06:34;;;;;;;;;;;20.20;99.90;;;;;;5023660;28;19949;-71
2023/08/14 03:09:02;;;;;;;;;;;20.30;99.90;;;;;;5023728;28;20225;-73
2023/08/14 03:11:29;;;;;;;;;;;20.30;99.90;;;;;;5024183;28;19960;-71
2023/08/14 03:13:56;;;;;;;;;;;20.30;99.90;;;;;;5023818;28;20284;-71
2023/08/14 03:16:22;;;;;;;;;;;20.30;99.90;;;;;;5024134;28;19921;-70
2023/08/14 03:18:49;;;;;;;;;;;20.30;99.90;;;;;;5023382;28;19927;-71
2023/08/14 03:21:15;;;;;;;;;;;20.30;99.90;;;;;;5023462;28;19996;-72
2023/08/14 03:23:43;;;;;;;;;;;20.20;99.90;;;;;;5023900;28;19996;-71
2023/08/14 03:26:11;;;;;;;;;;;20.20;99.90;;;;;;5023594;28;19921;-71
2023/08/14 03:28:38;;;;;;;;;;;20.20;99.90;;;;;;5023078;28;19996;-71
2023/08/14 03:31:04;;;;;;;;;;;20.20;99.90;;;;;;5023574;28;20268;-70
2023/08/14 03:33:31;;;;;;;;;;;20.20;99.90;;;;;;5026246;28;19921;-71
2023/08/14 03:35:57;;;;;;;;;;;20.20;99.90;;;;;;5027137;28;19988;-72
2023/08/14 03:38:24;;;;;;;;;;;20.20;99.90;;;;;;5026827;28;19922;-69
2023/08/14 03:40:51;;;;;;;;;;;20.30;99.90;;;;;;5027478;28;19984;-72
2023/08/14 03:43:18;;;;;;;;;;;20.30;99.90;;;;;;5027367;28;19928;-71
2023/08/14 03:45:45;;;;;;;;;;;20.30;99.90;;;;;;5026986;28;20120;-71
2023/08/14 03:48:20;;;;;;;;;;;20.40;99.90;;;;;;5024168;28;19928;-71
2023/08/14 03:50:47;;;;;;;;;;;20.30;99.90;;;;;;5026997;28;19988;-71
2023/08/14 03:53:14;;;;;;;;;;;20.40;99.90;;;;;;5026840;28;19976;-71
2023/08/14 03:55:40;;;;;;;;;;;20.40;99.90;;;;;;5026895;28;19921;-71
2023/08/14 03:58:07;;;;;;;;;;;20.30;99.90;;;;;;5026322;28;19921;-71
2023/08/14 04:00:35;;;;;;;;;;;20.30;99.90;;;;;;5026687;28;20184;-71
2023/08/14 04:03:02;;;;;;;;;;;20.30;99.90;;;;;;5026581;28;19946;-71
2023/08/14 04:05:28;;;;;;;;;;;20.30;99.90;;;;;;5026173;28;19926;-71
2023/08/14 04:07:55;;;;;;;;;;;20.30;99.90;;;;;;5026212;28;19926;-70
2023/08/14 04:10:21;;;;;;;;;;;20.30;99.90;;;;;;5026737;28;19921;-71
2023/08/14 04:12:50;;;;;;;;;;;20.30;99.90;;;;;;5026328;28;20177;-71
2023/08/14 04:15:17;;;;;;;;;;;20.30;99.90;;;;;;5026023;28;19928;-71
2023/08/14 04:17:45;;;;;;;;;;;20.30;99.90;;;;;;5025767;28;19921;-71
2023/08/14 04:20:12;;;;;;;;;;;20.30;99.90;;;;;;5026365;28;19989;-71
2023/08/14 04:22:39;;;;;;;;;;;20.30;99.90;;;;;;5026432;28;19921;-71
2023/08/14 04:25:06;;;;;;;;;;;20.20;99.90;;;;;;5025899;28;20150;-70
2023/08/14 04:27:32;;;;;;;;;;;20.30;99.90;;;;;;5025521;28;19921;-72
2023/08/14 04:29:59;;;;;;;;;;;20.20;99.90;;;;;;5026004;28;20109;-72
2023/08/14 04:32:26;;;;;;;;;;;20.30;99.90;;;;;;5026048;28;19944;-71
2023/08/14 04:34:54;;;;;;;;;;;20.30;99.90;;;;;;5025643;28;20124;-71
2023/08/14 04:37:21;;;;;;;;;;;20.30;99.90;;;;;;5024952;28;19928;-72
2023/08/14 04:39:47;;;;;;;;;;;20.30;99.90;;;;;;5025532;28;19928;-72
2023/08/14 04:42:14;;;;;;;;;;;20.30;99.90;;;;;;5025630;28;19929;-70
2023/08/14 04:44:40;;;;;;;;;;;20.30;99.90;;;;;;5024794;28;19921;-71
2023/08/14 04:47:07;;;;;;;;;;;20.30;99.90;;;;;;5023634;28;19984;-72
2023/08/14 04:49:33;;;;;;;;;;;20.30;99.90;;;;;;5025451;28;19985;-71
2023/08/14 04:52:01;;;;;;;;;;;20.30;99.90;;;;;;5025656;28;19928;-70
2023/08/14 04:54:28;;;;;;;;;;;20.30;99.90;;;;;;5025342;28;19989;-70
2023/08/14 04:56:54;;;;;;;;;;;20.30;99.90;;;;;;5024592;28;19921;-71
2023/08/14 04:59:21;;;;;;;;;;;20.30;99.90;;;;;;5024980;28;20165;-71
2023/08/14 05:01:48;;;;;;;;;;;20.30;99.90;;;;;;5025430;28;19922;-72
2023/08/14 05:04:14;;;;;;;;;;;20.30;99.90;;;;;;5025048;28;19928;-71
2023/08/14 05:06:41;;;;;;;;;;;20.30;99.90;;;;;;5024563;28;19921;-71
2023/08/14 05:09:09;;;;;;;;;;;20.30;99.90;;;;;;5025160;28;19928;-71
2023/08/14 05:11:35;;;;;;;;;;;20.30;99.90;;;;;;5024766;28;19996;-71
2023/08/14 05:14:02;;;;;;;;;;;20.20;99.90;;;;;;5025139;28;19921;-72
2023/08/14 05:16:29;;;;;;;;;;;20.30;99.90;;;;;;5024887;28;19928;-71
2023/08/14 05:18:55;;;;;;;;;;;20.30;99.90;;;;;;5025051;28;19957;-71
2023/08/14 05:21:22;;;;;;;;;;;20.30;99.90;;;;;;5025449;28;20094;-72
2023/08/14 05:23:48;;;;;;;;;;;20.30;99.90;;;;;;5025241;28;19921;-71
2023/08/14 05:26:16;;;;;;;;;;;20.20;99.90;;;;;;5024503;28;20227;-71
2023/08/14 05:28:43;;;;;;;;;;;20.20;99.90;;;;;;5024404;28;19989;-70
2023/08/14 05:31:10;;;;;;;;;;;20.20;99.90;;;;;;5025120;28;19985;-71
2023/08/14 05:33:36;;;;;;;;;;;20.30;99.90;;;;;;5024958;28;19976;-71
2023/08/14 05:36:03;;;;;;;;;;;20.30;99.90;;;;;;5024083;28;19921;-71
2023/08/14 05:38:30;;;;;;;;;;;20.20;99.90;;;;;;5023844;28;19929;-71
2023/08/14 05:40:56;;;;;;;;;;;20.20;99.90;;;;;;5036342;28;19921;-71
2023/08/14 05:43:24;;;;;;;;;;;20.20;99.90;;;;;;5024638;28;20227;-71
2023/08/14 05:45:51;;;;;;;;;;;20.20;99.90;;;;;;5024292;28;19921;-71
2023/08/14 05:48:17;;;;;;;;;;;20.20;99.90;;;;;;5023897;28;20359;-72
2023/08/14 05:50:44;;;;;;;;;;;20.20;99.90;;;;;;5024525;28;19928;-70
2023/08/14 05:53:10;;;;;;;;;;;20.20;99.90;;;;;;5024479;28;19921;-71
2023/08/14 05:55:38;;;;;;;;;;;20.30;99.90;;;;;;5023662;28;19996;-71
2023/08/14 05:58:05;;;;;;;;;;;20.30;99.90;;;;;;5024015;28;19980;-71
2023/08/14 06:00:34;;;;;;;;;;;20.30;99.90;;;;;;5024815;28;19921;-71
2023/08/14 06:03:01;;;;;;;;;;;20.30;99.90;;;;;;5024609;28;19921;-72
2023/08/14 06:05:27;;;;;;;;;;;20.40;99.90;;;;;;5024493;28;19984;-71
2023/08/14 06:07:55;;;;;;;;;;;20.40;99.90;;;;;;5023818;28;19921;-70
2023/08/14 06:10:22;;;;;;;;;;;20.40;99.90;;;;;;5024514;28;19922;-72
2023/08/14 06:12:49;;;;;;;;;;;20.50;99.90;;;;;;5024533;28;19928;-69
2023/08/14 06:15:16;;;;;;;;;;;20.50;99.90;;;;;;5024395;28;19921;-71
2023/08/14 06:17:44;;;;;;;;;;;20.70;99.90;;;;;;5023597;28;19929;-69
2023/08/14 06:20:11;;;;;;;;;;;20.70;99.90;;;;;;5024618;28;19984;-70
2023/08/14 06:22:39;;;;;;;;;;;20.70;99.90;;;;;;5024317;28;19921;-71
2023/08/14 06:25:06;;;;;;;;;;;20.80;99.90;;;;;;5024067;28;19925;-71
2023/08/14 06:27:33;;;;;;;;;;;20.90;99.90;;;;;;5023684;28;19922;-72
2023/08/14 06:29:59;;;;;;;;;;;21.00;99.90;;;;;;5024261;28;19921;-71
2023/08/14 06:32:26;;;;;;;;;;;21.00;99.90;;;;;;5024180;28;20286;-71
2023/08/14 06:34:54;;;;;;;;;;;21.00;99.90;;;;;;5023898;28;19921;-71
2023/08/14 06:37:20;;;;;;;;;;;21.00;99.90;;;;;;5023446;28;19984;-71
2023/08/14 06:39:47;;;;;;;;;;;21.00;99.90;;;;;;5024248;28;19968;-71
2023/08/14 06:42:14;;;;;;;;;;;21.00;99.90;;;;;;5024197;28;19928;-71
2023/08/14 06:44:40;;;;;;;;;;;21.00;99.90;;;;;;5024134;28;19928;-71
2023/08/14 06:47:07;;;;;;;;;;;21.00;99.90;;;;;;5023514;28;20217;-70
2023/08/14 06:49:34;;;;;;;;;;;21.00;99.90;;;;;;5024261;28;19984;-71
2023/08/14 06:52:01;;;;;;;;;;;21.00;99.90;;;;;;5033940;28;19921;-71
2023/08/14 06:54:28;;;;;;;;;;;21.00;99.90;;;;;;5029379;28;19989;-71
2023/08/14 06:56:55;;;;;;;;;;;21.00;99.90;;;;;;5022510;28;20008;-70
2023/08/14 06:59:21;;;;;;;;;;;21.00;99.90;;;;;;5023201;28;20240;-70
2023/08/14 07:01:48;;;;;;;;;;;21.10;99.90;;;;;;5023226;28;19945;-73
2023/08/14 07:04:15;;;;;;;;;;;21.10;99.90;;;;;;5023026;28;19929;-70
2023/08/14 07:06:41;;;;;;;;;;;21.20;99.90;;;;;;5030290;28;19921;-71
2023/08/14 07:09:09;;;;;;;;;;;21.20;99.90;;;;;;5047089;28;19921;-71
2023/08/14 07:11:38;;;;;;;;;;;21.30;99.90;;;;;;5047145;28;19980;-71
2023/08/14 07:14:06;;;;;;;;;;;21.30;99.90;;;;;;5031045;28;19949;-71
2023/08/14 07:16:34;;;;;;;;;;;21.40;99.90;;;;;;5026158;28;19928;-71
2023/08/14 07:19:00;;;;;;;;;;;21.50;99.90;;;;;;5027555;28;19957;-71
2023/08/14 07:21:27;;;;;;;;;;;21.50;99.90;;;;;;5028704;28;20175;-71
2023/08/14 07:23:54;;;;;;;;;;;21.60;99.90;;;;;;5028931;28;19921;-71
2023/08/14 07:26:22;;;;;;;;;;;21.60;99.90;;;;;;5027172;28;20256;-70
2023/08/14 07:28:49;;;;;;;;;;;21.70;99.90;;;;;;5026388;28;19981;-70
2023/08/14 07:31:15;;;;;;;;;;;21.80;99.90;;;;;;5026950;28;20116;-71
2023/08/14 07:33:42;;;;;;;;;;;21.90;99.90;;;;;;5028215;28;19989;-71
2023/08/14 07:36:08;;;;;;;;;;;22.00;99.90;;;;;;5028457;28;19921;-70
2023/08/14 07:38:35;;;;;;;;;;;22.00;99.90;;;;;;5028271;28;19990;-71
2023/08/14 07:41:02;;;;;;;;;;;22.10;99.90;;;;;;5027318;28;19928;-71
2023/08/14 07:43:30;;;;;;;;;;;22.10;99.90;;;;;;5028668;28;20156;-71
2023/08/14 07:45:56;;;;;;;;;;;22.20;99.90;;;;;;5027971;28;19922;-71
2023/08/14 07:48:23;;;;;;;;;;;22.20;99.90;;;;;;5027690;28;19922;-70
2023/08/14 07:50:53;;;;;;;;;;;22.20;99.90;;;;;;5028076;28;19928;-70
2023/08/14 07:53:20;;;;;;;;;;;22.20;99.90;;;;;;5028086;28;19921;-71
2023/08/14 07:55:48;;;;;;;;;;;22.30;99.90;;;;;;5027635;28;19984;-70
2023/08/14 07:58:14;;;;;;;;;;;22.30;99.90;;;;;;5026467;28;19921;-71
2023/08/14 08:00:42;;;;;;;;;;;22.40;99.90;;;;;;5027893;28;19926;-71
2023/08/14 08:03:09;;;;;;;;;;;22.50;99.90;;;;;;5027870;28;19921;-70
2023/08/14 08:05:36;;;;;;;;;;;22.50;99.90;;;;;;5028260;28;19922;-70
2023/08/14 08:08:03;;;;;;;;;;;22.50;99.90;;;;;;5026513;28;20113;-71
2023/08/14 08:10:30;;;;;;;;;;;22.50;99.90;;;;;;5027543;28;19953;-70
2023/08/14 08:12:57;;;;;;;;;;;22.70;99.90;;;;;;5023298;28;19989;-70
2023/08/14 08:15:24;;;;;;;;;;;22.70;99.90;;;;;;5016703;28;19922;-70
2023/08/14 08:17:52;;;;;;;;;;;22.80;99.90;;;;;;5025830;28;19929;-70
2023/08/14 08:20:18;;;;;;;;;;;22.90;99.90;;;;;;5026239;28;19953;-70
2023/08/14 08:22:45;;;;;;;;;;;22.90;99.90;;;;;;5026967;28;19930;-70
2023/08/14 08:25:11;;;;;;;;;;;23.00;99.90;;;;;;5026437;28;19922;-70
2023/08/14 08:27:38;;;;;;;;;;;23.20;99.90;;;;;;5026481;28;20116;-70
2023/08/14 08:30:05;;;;;;;;;;;23.40;99.90;;;;;;5026675;28;19980;-70
2023/08/14 08:32:32;;;;;;;;;;;23.40;99.90;;;;;;5026627;28;19960;-69
2023/08/14 08:35:00;;;;;;;;;;;23.50;99.90;;;;;;5024280;28;19936;-70
2023/08/14 08:37:26;;;;;;;;;;;23.60;99.90;;;;;;5016327;28;19922;-70
2023/08/14 08:39:53;;;;;;;;;;;23.60;99.90;;;;;;5026292;28;19928;-70
2023/08/14 08:42:20;;;;;;;;;;;23.70;99.90;;;;;;5026497;28;19943;-70
2023/08/14 08:44:47;;;;;;;;;;;23.70;99.90;;;;;;5026521;28;19984;-70
2023/08/14 08:47:15;;;;;;;;;;;23.70;99.90;;;;;;5026225;28;19949;-70
2023/08/14 08:49:42;;;;;;;;;;;23.80;99.90;;;;;;5026994;28;19921;-70
2023/08/14 08:52:10;;;;;;;;;;;23.80;99.90;;;;;;5025526;28;19921;-70
2023/08/14 08:54:37;;;;;;;;;;;23.90;99.90;;;;;;5025816;28;19953;-69
2023/08/14 08:57:05;;;;;;;;;;;23.90;99.90;;;;;;5024659;28;19971;-70
2023/08/14 08:59:32;;;;;;;;;;;23.90;99.90;;;;;;5025908;28;20251;-70
2023/08/14 09:01:58;;;;;;;;;;;24.00;99.90;;;;;;5027078;28;19941;-70
2023/08/14 09:04:25;;;;;;;;;;;24.00;99.90;;;;;;5026852;28;19921;-70
2023/08/14 09:06:52;;;;;;;;;;;24.10;99.90;;;;;;5025758;28;20216;-70
2023/08/14 09:09:20;;;;;;;;;;;24.20;99.90;;;;;;5026426;28;19921;-70
2023/08/14 09:11:47;;;;;;;;;;;24.30;99.90;;;;;;5021174;28;20260;-70
2023/08/14 09:14:13;;;;;;;;;;;24.40;99.90;;;;;;5018157;28;19921;-69
2023/08/14 09:16:40;;;;;;;;;;;24.40;99.90;;;;;;5016189;28;19928;-69
2023/08/14 09:19:07;;;;;;;;;;;24.40;99.90;;;;;;5028616;28;19948;-70
2023/08/14 09:21:34;;;;;;;;;;;24.50;99.90;;;;;;5019207;28;19921;-70
2023/08/14 09:24:00;;;;;;;;;;;24.50;99.90;;;;;;5028582;28;19921;-70
2023/08/14 09:26:28;;;;;;;;;;;24.60;99.90;;;;;;5032994;28;19929;-70
2023/08/14 09:28:56;;;;;;;;;;;24.70;99.90;;;;;;5030711;28;19925;-70
2023/08/14 09:31:22;;;;;;;;;;;24.70;99.90;;;;;;5023536;28;19978;-70
2023/08/14 09:33:49;;;;;;;;;;;24.80;99.90;;;;;;5038063;28;19921;-70
2023/08/14 09:36:16;;;;;;;;;;;24.90;99.90;;;;;;5045449;28;19993;-69
2023/08/14 09:38:43;;;;;;;;;;;25.00;99.90;;;;;;5035353;28;20003;-71
2023/08/14 09:41:10;;;;;;;;;;;25.10;99.90;;;;;;5023794;28;19993;-70
2023/08/14 09:43:40;;;;;;;;;;;25.20;99.90;;;;;;5023586;28;19921;-71
2023/08/14 09:46:06;;;;;;;;;;;25.40;99.90;;;;;;5024043;28;19927;-71
2023/08/14 09:48:39;;;;;;;;;;;25.50;99.90;;;;;;5023804;28;19928;-71
2023/08/14 09:51:06;;;;;;;;;;;25.60;99.90;;;;;;5023283;28;20205;-75
2023/08/14 09:53:43;;;;;;;;;;;25.60;99.90;;;;;;5024181;28;19929;-72
2023/08/14 09:56:10;;;;;;;;;;;25.70;99.90;;;;;;5024055;28;19988;-71
2023/08/14 09:58:38;;;;;;;;;;;25.70;99.90;;;;;;5023066;28;20205;-70
2023/08/14 10:01:07;;;;;;;;;;;25.80;99.90;;;;;;5023661;28;20283;-71
2023/08/14 10:03:34;;;;;;;;;;;26.00;99.90;;;;;;5024665;28;19988;-71
2023/08/14 10:06:01;;;;;;;;;;;26.00;99.90;;;;;;5023884;28;20206;-72
2023/08/14 10:08:29;;;;;;;;;;;26.10;99.90;;;;;;5022226;28;19922;-71
2023/08/14 10:10:56;;;;;;;;;;;26.10;99.90;;;;;;5023553;28;19956;-71
2023/08/14 10:13:24;;;;;;;;;;;26.10;99.90;;;;;;5023985;28;19988;-70
2023/08/14 10:15:54;;;;;;;;;;;26.20;99.90;;;;;;5023976;28;20268;-71
2023/08/14 10:18:23;;;;;;;;;;;26.30;99.90;;;;;;5023478;28;19957;-70
2023/08/14 10:20:50;;;;;;;;;;;26.40;99.90;;;;;;5024163;28;19922;-71
2023/08/14 10:23:17;;;;;;;;;;;26.50;99.90;;;;;;5023869;28;20165;-71
2023/08/14 10:25:47;;;;;;;;;;;26.60;99.90;;;;;;5023387;28;19984;-71
2023/08/14 10:28:13;;;;;;;;;;;26.70;99.90;;;;;;5021676;28;20849;-71
2023/08/14 10:30:40;;;;;;;;;;;26.80;99.90;;;;;;5022874;28;19989;-72
2023/08/14 10:33:08;;;;;;;;;;;26.90;99.90;;;;;;5009373;28;19981;-72
2023/08/14 10:35:44;;;;;;;;;;;26.90;99.90;;;;;;5023778;28;19921;-71
2023/08/14 10:38:11;;;;;;;;;;;27.00;99.90;;;;;;5003413;28;19962;-71
2023/08/14 10:40:50;;;;;;;;;;;27.10;99.90;;;;;;5004281;28;19921;-71
2023/08/14 10:43:17;;;;;;;;;;;27.20;99.90;;;;;;5023969;28;19992;-71
2023/08/14 10:45:45;;;;;;;;;;;27.30;99.90;;;;;;5025073;28;20019;-74
2023/08/14 10:48:13;;;;;;;;;;;27.40;99.90;;;;;;5025872;28;19921;-71
2023/08/14 10:50:40;;;;;;;;;;;27.50;99.90;;;;;;5007823;28;19988;-71
2023/08/14 10:53:06;;;;;;;;;;;27.70;99.90;;;;;;5033693;28;19928;-71
2023/08/14 10:55:37;;;;;;;;;;;27.80;99.90;;;;;;5047043;28;19921;-71
2023/08/14 10:58:19;;;;;;;;;;;27.90;99.90;;;;;;5043047;28;19928;-72
2023/08/14 11:00:46;;;;;;;;;;;28.00;99.90;;;;;;5027399;28;20116;-71
2023/08/14 11:03:14;;;;;;;;;;;28.10;99.90;;;;;;5027587;28;19929;-71
2023/08/14 11:05:41;;;;;;;;;;;28.20;99.90;;;;;;5027755;28;19955;-71
2023/08/14 11:08:09;;;;;;;;;;;28.30;99.90;;;;;;5027507;28;19921;-72
2023/08/14 11:10:36;;;;;;;;;;;28.40;99.90;;;;;;5027918;28;19984;-72
2023/08/14 11:13:03;;;;;;;;;;;28.50;99.90;;;;;;5027613;28;19928;-71
2023/08/14 11:15:31;;;;;;;;;;;28.60;99.90;;;;;;5027540;28;19922;-71
2023/08/14 11:17:57;;;;;;;;;;;28.70;99.90;;;;;;5026137;28;20292;-71
2023/08/14 11:20:27;;;;;;;;;;;28.80;99.90;;;;;;5026996;28;20090;-72
2023/08/14 11:22:54;;;;;;;;;;;28.90;99.90;;;;;;5026612;28;19928;-72
2023/08/14 11:25:21;;;;;;;;;;;28.90;99.90;;;;;;5026660;28;20165;-72
2023/08/14 11:27:49;;;;;;;;;;;29.00;99.90;;;;;;5026361;28;19960;-71
2023/08/14 11:30:16;;;;;;;;;;;29.10;99.90;;;;;;5027328;28;19929;-71
2023/08/14 11:32:42;;;;;;;;;;;29.20;99.90;;;;;;5027616;28;19952;-73
2023/08/14 11:35:10;;;;;;;;;;;29.30;99.90;;;;;;5026062;28;19960;-71
2023/08/14 11:37:38;;;;;;;;;;;29.40;99.90;;;;;;5026093;28;19922;-72
2023/08/14 11:40:05;;;;;;;;;;;29.50;99.90;;;;;;5024947;28;19921;-72
2023/08/14 11:42:32;;;;;;;;;;;29.60;99.90;;;;;;5027202;28;20280;-71
2023/08/14 11:45:02;;;;;;;;;;;29.70;99.90;;;;;;5023951;28;19930;-71
2023/08/14 11:47:30;;;;;;;;;;;29.80;99.90;;;;;;5026762;28;19925;-71
2023/08/14 11:49:57;;;;;;;;;;;29.80;99.90;;;;;;5025878;28;20273;-71
2023/08/14 11:52:25;;;;;;;;;;;30.00;99.90;;;;;;5023784;28;19928;-71
2023/08/14 11:54:53;;;;;;;;;;;30.10;99.90;;;;;;5026009;28;19985;-72
2023/08/14 11:57:22;;;;;;;;;;;30.20;99.90;;;;;;5023930;28;19989;-71
2023/08/14 11:59:49;;;;;;;;;;;30.30;99.90;;;;;;5026776;28;19921;-71
2023/08/14 12:02:18;;;;;;;;;;;30.40;99.90;;;;;;5027236;28;19929;-72
2023/08/14 12:04:44;;;;;;;;;;;30.60;99.90;;;;;;5027261;28;19921;-71
2023/08/14 12:07:11;;;;;;;;;;;30.70;99.90;;;;;;5009066;28;19921;-71
2023/08/14 12:09:38;;;;;;;;;;;30.80;99.90;;;;;;5008021;28;20334;-72
2023/08/14 12:12:07;;;;;;;;;;;30.80;99.90;;;;;;5026995;28;19960;-72
2023/08/14 12:14:40;;;;;;;;;;;30.90;99.90;;;;;;5026911;28;19921;-71
2023/08/14 12:17:08;;;;;;;;;;;31.00;99.90;;;;;;5026142;28;19936;-73
2023/08/14 12:19:35;;;;;;;;;;;31.10;99.90;;;;;;5026714;28;19928;-71
2023/08/14 12:22:01;;;;;;;;;;;31.20;99.90;;;;;;5026997;28;19922;-71
2023/08/14 12:24:28;;;;;;;;;;;31.30;99.90;;;;;;5026938;28;19922;-72
2023/08/14 12:26:54;;;;;;;;;;;31.40;99.90;;;;;;5019285;28;19922;-71
2023/08/14 12:29:23;;;;;;;;;;;31.50;99.90;;;;;;5025974;28;19928;-71
2023/08/14 12:31:49;;;;;;;;;;;31.50;99.90;;;;;;5025641;28;20001;-71
2023/08/14 12:34:18;;;;;;;;;;;31.60;99.90;;;;;;5025955;28;20148;-71
2023/08/14 12:36:44;;;;;;;;;;;31.70;99.90;;;;;;5024925;28;19921;-71
2023/08/14 12:39:11;;;;;;;;;;;31.80;99.90;;;;;;5024585;28;19928;-70
2023/08/14 12:41:37;;;;;;;;;;;31.90;99.90;;;;;;5026283;28;19960;-71
2023/08/14 12:44:04;;;;;;;;;;;31.90;99.90;;;;;;5025851;28;19929;-72
2023/08/14 12:46:32;;;;;;;;;;;32.00;99.90;;;;;;5025499;28;19988;-71
2023/08/14 12:48:59;;;;;;;;;;;32.00;99.90;;;;;;5026097;28;19988;-70
2023/08/14 12:51:25;;;;;;;;;;;31.80;99.90;;;;;;5018459;28;19921;-71
2023/08/14 12:53:52;;;;;;;;;;;31.70;99.90;;;;;;5026458;28;19988;-71
2023/08/14 12:56:19;;;;;;;;;;;31.60;99.90;;;;;;5026266;28;19921;-71
2023/08/14 12:58:45;;;;;;;;;;;31.50;99.90;;;;;;5025845;28;19929;-71
2023/08/14 13:01:12;;;;;;;;;;;31.30;99.90;;;;;;5026462;28;20197;-71
2023/08/14 13:03:40;;;;;;;;;;;31.30;99.90;;;;;;5026315;28;19960;-71
2023/08/14 13:06:07;;;;;;;;;;;31.30;99.90;;;;;;5025547;28;19928;-71
2023/08/14 13:08:33;;;;;;;;;;;31.30;99.90;;;;;;5025525;28;19926;-70
2023/08/14 13:11:00;;;;;;;;;;;31.40;99.90;;;;;;5026284;28;19922;-71
2023/08/14 13:13:27;;;;;;;;;;;31.50;99.90;;;;;;5025756;28;19921;-71
2023/08/14 13:15:53;;;;;;;;;;;31.40;99.90;;;;;;5025341;28;19921;-71
2023/08/14 13:18:21;;;;;;;;;;;31.40;99.90;;;;;;5025275;28;20001;-71
2023/08/14 13:20:49;;;;;;;;;;;31.50;99.90;;;;;;5025189;28;19928;-72
2023/08/14 13:23:16;;;;;;;;;;;31.60;99.90;;;;;;5025475;28;19921;-71
2023/08/14 13:25:42;;;;;;;;;;;31.80;99.90;;;;;;5024920;28;19921;-70
2023/08/14 13:28:09;;;;;;;;;;;32.00;99.90;;;;;;5024585;28;19928;-71
2023/08/14 13:30:35;;;;;;;;;;;32.20;99.90;;;;;;5024876;28;19921;-72
2023/08/14 13:33:02;;;;;;;;;;;32.40;99.90;;;;;;5025099;28;19988;-71
2023/08/14 13:35:28;;;;;;;;;;;32.50;99.90;;;;;;5024316;28;20113;-71
2023/08/14 13:37:56;;;;;;;;;;;32.70;99.90;;;;;;5023683;28;19922;-71
2023/08/14 13:40:23;;;;;;;;;;;32.90;99.90;;;;;;5024258;28;19988;-71
2023/08/14 13:42:50;;;;;;;;;;;33.00;99.90;;;;;;5024269;28;19971;-71
2023/08/14 13:45:16;;;;;;;;;;;33.10;99.90;;;;;;5024042;28;19925;-72
2023/08/14 13:47:43;;;;;;;;;;;33.20;99.90;;;;;;5023778;28;20108;-70
2023/08/14 13:50:10;;;;;;;;;;;33.10;99.90;;;;;;5024967;28;19993;-71
2023/08/14 13:52:36;;;;;;;;;;;33.10;99.90;;;;;;5024332;28;20264;-71
2023/08/14 13:55:05;;;;;;;;;;;33.00;99.90;;;;;;5024310;28;19928;-71
2023/08/14 13:57:32;;;;;;;;;;;32.80;99.90;;;;;;5023737;28;20149;-70
2023/08/14 13:59:58;;;;;;;;;;;32.70;99.90;;;;;;5023260;28;19925;-71
2023/08/14 14:02:25;;;;;;;;;;;32.50;99.90;;;;;;5012537;28;19922;-71
2023/08/14 14:04:51;;;;;;;;;;;32.30;99.90;;;;;;5003968;28;19922;-70
2023/08/14 14:07:18;;;;;;;;;;;32.00;99.90;;;;;;5003405;28;19953;-71
2023/08/14 14:09:44;;;;;;;;;;;31.90;99.90;;;;;;5004060;28;19921;-71
2023/08/14 14:12:12;;;;;;;;;;;31.60;99.90;;;;;;5019579;28;19993;-70
2023/08/14 14:14:39;;;;;;;;;;;31.40;99.90;;;;;;5023566;28;19922;-69
2023/08/14 14:17:06;;;;;;;;;;;31.30;99.90;;;;;;5022529;28;19921;-70